Time;durP1;ratioP1;P1;durP2;ratioP2;P2;SDS_P1;SDS_P2;PMS_P1;PMS_P2;Temp;Humidity;BMP_temperature;BMP_pressure;BME280_temperature;BME280_humidity;BME280_pressure;Samples;Min_cycle;Max_cycle;Signal;HPM_P1;HPM_P2
2022/12/02 00:02:18;;;;;;;0.10;0.10;;;;;;;2.42;100.00;101550.22;6268434;22;20129;-78
2022/12/02 00:04:43;;;;;;;0.00;0.00;;;;;;;2.35;100.00;101533.09;6243258;22;20004;-76
2022/12/02 00:07:18;;;;;;;0.00;0.00;;;;;;;2.37;100.00;101536.44;6243381;22;20042;-76
2022/12/02 00:09:44;;;;;;;0.10;0.10;;;;;;;2.36;100.00;101534.75;6273699;22;20375;-76
2022/12/02 00:12:25;;;;;;;0.10;0.10;;;;;;;2.34;100.00;101520.63;6241090;22;20004;-79
2022/12/02 00:14:59;;;;;;;0.00;0.00;;;;;;;2.38;100.00;101509.28;6244976;22;20813;-79
2022/12/02 00:17:24;;;;;;;0.10;0.10;;;;;;;2.39;100.00;101504.69;6216503;22;20012;-77
2022/12/02 00:19:50;;;;;;;0.10;0.10;;;;;;;2.44;100.00;101511.22;6221537;22;20528;-78
2022/12/02 00:22:16;;;;;;;0.00;0.00;;;;;;;2.31;100.00;101493.97;6241946;22;20442;-77
2022/12/02 00:24:41;;;;;;;0.00;0.00;;;;;;;2.42;100.00;101501.63;6218548;22;20004;-78
2022/12/02 00:27:07;;;;;;;0.00;0.00;;;;;;;2.47;100.00;101510.03;6272835;22;20042;-79
2022/12/02 00:29:32;;;;;;;0.00;0.00;;;;;;;2.52;100.00;101509.47;6242416;22;19999;-79
2022/12/02 00:31:57;;;;;;;0.00;0.00;;;;;;;2.56;100.00;101510.75;6220853;22;20023;-79
2022/12/02 00:34:23;;;;;;;0.10;0.10;;;;;;;2.57;100.00;101507.88;6246329;22;20035;-79
2022/12/02 00:36:48;;;;;;;0.00;0.00;;;;;;;2.56;100.00;101498.09;6267739;22;20012;-79
2022/12/02 00:39:15;;;;;;;0.10;0.10;;;;;;;2.59;100.00;101497.72;6246279;22;20399;-80
2022/12/02 00:41:40;;;;;;;0.00;0.00;;;;;;;2.65;100.00;101506.09;6193083;22;20011;-78
2022/12/02 00:46:50;;;;;;;0.10;0.10;;;;;;;2.68;100.00;101503.03;6223829;22;20088;-79
2022/12/02 00:49:16;;;;;;;0.00;0.00;;;;;;;2.72;100.00;101496.22;6222003;22;20082;-79
2022/12/02 00:51:43;;;;;;;0.00;0.00;;;;;;;2.76;100.00;101502.91;6216112;22;20030;-79
2022/12/02 00:54:09;;;;;;;0.00;0.00;;;;;;;2.75;100.00;101491.28;6244063;22;20011;-79
2022/12/02 00:56:34;;;;;;;0.10;0.10;;;;;;;2.73;100.00;101485.25;6245810;22;20138;-79
2022/12/02 00:59:00;;;;;;;0.00;0.00;;;;;;;2.77;100.00;101485.69;6266764;22;20004;-78
2022/12/02 01:01:27;;;;;;;0.10;0.10;;;;;;;2.82;100.00;101485.97;6245651;22;20489;-80
2022/12/02 01:03:52;;;;;;;0.00;0.00;;;;;;;2.81;100.00;101484.28;6267968;22;20078;-79
2022/12/02 01:06:18;;;;;;;0.00;0.00;;;;;;;2.76;100.00;101479.47;6241630;22;20050;-80
2022/12/02 01:08:44;;;;;;;0.00;0.00;;;;;;;2.71;100.00;101475.63;6216181;22;20018;-81
2022/12/02 01:11:09;;;;;;;0.10;0.10;;;;;;;2.73;100.00;101473.56;6244107;22;20030;-79
2022/12/02 01:13:35;;;;;;;0.00;0.00;;;;;;;2.73;100.00;101462.78;6217455;22;20077;-79
2022/12/02 01:16:00;;;;;;;0.10;0.10;;;;;;;2.73;100.00;101462.78;6240363;22;20632;-79
2022/12/02 01:18:26;;;;;;;0.00;0.00;;;;;;;2.75;100.00;101458.03;6217171;22;20003;-78
2022/12/02 01:20:51;;;;;;;0.00;0.00;;;;;;;2.77;100.00;101467.63;6240528;22;20031;-79
2022/12/02 01:23:17;;;;;;;0.00;0.00;;;;;;;2.84;100.00;101466.88;6242367;22;20006;-79
2022/12/02 01:25:43;;;;;;;0.00;0.00;;;;;;;2.84;100.00;101474.97;6242943;22;20003;-78
2022/12/02 01:28:08;;;;;;;0.00;0.00;;;;;;;2.83;100.00;101471.41;6213142;22;20031;-80
2022/12/02 01:30:34;;;;;;;0.00;0.00;;;;;;;2.80;100.00;101463.69;6220269;22;20053;-80
2022/12/02 01:33:02;;;;;;;0.10;0.10;;;;;;;2.72;100.00;101458.41;6189479;22;20422;-78
2022/12/02 01:35:27;;;;;;;0.00;0.00;;;;;;;2.79;100.00;101462.03;6219930;22;20010;-81
2022/12/02 01:37:53;;;;;;;0.00;0.00;;;;;;;2.86;100.00;101470.22;6190214;22;20008;-79
2022/12/02 01:40:19;;;;;;;0.00;0.00;;;;;;;2.87;100.00;101467.31;6191891;22;20279;-79
2022/12/02 01:42:47;;;;;;;0.10;0.10;;;;;;;2.88;100.00;101468.16;6243929;22;19995;-79
2022/12/02 01:45:12;;;;;;;0.10;0.10;;;;;;;2.96;100.00;101478.84;6268768;22;20449;-79
2022/12/02 01:47:39;;;;;;;0.00;0.00;;;;;;;2.94;100.00;101473.63;6191944;22;20024;-78
2022/12/02 01:50:07;;;;;;;0.00;0.00;;;;;;;2.91;100.00;101479.44;6217676;22;20049;-78
2022/12/02 01:52:33;;;;;;;0.00;0.00;;;;;;;2.72;100.00;101453.00;6246314;22;20000;-77
2022/12/02 01:54:58;;;;;;;0.00;0.00;;;;;;;2.89;100.00;101480.63;6217298;22;20019;-79
2022/12/02 01:57:27;;;;;;;0.05;0.05;;;;;;;2.93;100.00;101488.16;6242232;22;20007;-79
2022/12/02 01:59:53;;;;;;;0.00;0.00;;;;;;;3.00;100.00;101493.66;6245173;22;20007;-79
2022/12/02 02:02:30;;;;;;;0.00;0.00;;;;;;;3.02;100.00;101490.78;6240270;22;20004;-79
2022/12/02 02:05:04;;;;;;;0.00;0.00;;;;;;;3.00;100.00;101479.31;6242530;22;20035;-77
2022/12/02 02:07:30;;;;;;;0.10;0.10;;;;;;;3.02;100.00;101477.25;6241382;22;20093;-77
2022/12/02 02:09:56;;;;;;;0.00;0.00;;;;;;;3.09;100.00;101491.69;6244776;22;20221;-78
2022/12/02 02:12:23;;;;;;;0.10;0.10;;;;;;;3.06;100.00;101486.66;6235022;22;20057;-78
2022/12/02 02:14:49;;;;;;;0.00;0.00;;;;;;;2.98;100.00;101479.53;6242788;22;20007;-78
2022/12/02 02:17:15;;;;;;;0.00;0.00;;;;;;;3.03;100.00;101476.25;6238486;22;20018;-79
2022/12/02 02:19:40;;;;;;;0.00;0.00;;;;;;;3.01;100.00;101472.88;6216117;22;20007;-79
2022/12/02 02:22:18;;;;;;;0.00;0.00;;;;;;;3.02;100.00;101478.09;6216868;22;20330;-78
2022/12/02 02:24:44;;;;;;;0.00;0.00;;;;;;;2.95;100.00;101459.09;6240377;22;20000;-79
2022/12/02 02:27:10;;;;;;;0.00;0.00;;;;;;;3.03;100.00;101462.72;6214933;22;20004;-78
2022/12/02 02:29:35;;;;;;;0.00;0.00;;;;;;;3.05;100.00;101466.06;6237944;22;20314;-79
2022/12/02 02:32:01;;;;;;;0.10;0.10;;;;;;;3.02;100.00;101458.34;6216352;22;20098;-80
2022/12/02 02:34:26;;;;;;;0.00;0.00;;;;;;;3.02;100.00;101459.16;6240078;22;20578;-80
2022/12/02 02:36:52;;;;;;;0.00;0.00;;;;;;;3.09;100.00;101464.66;6213488;22;20039;-78
2022/12/02 02:39:18;;;;;;;0.00;0.00;;;;;;;3.07;100.00;101458.63;6217185;22;20022;-78
2022/12/02 02:41:44;;;;;;;0.10;0.10;;;;;;;3.03;100.00;101451.91;6210273;22;20098;-78
2022/12/02 02:44:10;;;;;;;0.00;0.00;;;;;;;3.02;100.00;101463.75;6216246;22;20030;-79
2022/12/02 02:46:35;;;;;;;0.00;0.00;;;;;;;3.05;100.00;101461.53;6210644;22;20506;-77
2022/12/02 02:49:01;;;;;;;0.00;0.00;;;;;;;3.10;100.00;101458.22;6241803;22;20007;-78
2022/12/02 02:51:26;;;;;;;0.00;0.00;;;;;;;3.07;100.00;101461.31;6267021;22;20059;-77
2022/12/02 02:53:52;;;;;;;0.00;0.00;;;;;;;3.09;100.00;101456.56;6186790;22;20004;-78
2022/12/02 02:56:17;;;;;;;0.10;0.10;;;;;;;3.08;100.00;101457.56;6242660;22;20487;-78
2022/12/02 02:58:43;;;;;;;0.00;0.00;;;;;;;3.08;100.00;101457.56;6211855;22;20551;-78
2022/12/02 03:01:24;;;;;;;0.00;0.00;;;;;;;3.13;100.00;101455.16;6241743;22;20012;-77
2022/12/02 03:03:56;;;;;;;0.00;0.00;;;;;;;3.17;100.00;101445.63;6262235;22;19999;-77
2022/12/02 03:06:25;;;;;;;0.00;0.00;;;;;;;3.20;100.00;101439.84;6242320;22;20046;-77
2022/12/02 03:08:52;;;;;;;0.03;0.03;;;;;;;3.14;100.00;101427.91;6238739;22;20004;-77
2022/12/02 03:11:17;;;;;;;0.00;0.00;;;;;;;3.28;100.00;101437.00;6238583;22;20456;-77
2022/12/02 03:13:45;;;;;;;0.10;0.10;;;;;;;3.33;100.00;101433.72;6191492;22;20086;-78
2022/12/02 03:16:13;;;;;;;0.00;0.00;;;;;;;3.34;100.00;101424.56;6241432;22;20460;-78
2022/12/02 03:18:40;;;;;;;0.10;0.10;;;;;;;3.37;100.00;101423.34;6270300;22;20007;-80
2022/12/02 03:21:07;;;;;;;0.00;0.00;;;;;;;3.39;100.00;101432.09;6239414;22;20391;-78
2022/12/02 03:23:32;;;;;;;0.00;0.00;;;;;;;3.38;100.00;101427.75;6215038;22;20011;-77
2022/12/02 03:26:00;;;;;;;0.10;0.10;;;;;;;3.32;100.00;101416.66;6236405;22;20405;-79
2022/12/02 03:28:25;;;;;;;0.10;0.10;;;;;;;3.31;100.00;101415.00;6268353;22;20004;-80
2022/12/02 03:30:51;;;;;;;0.00;0.00;;;;;;;3.31;100.00;101414.16;6213052;22;20026;-78
2022/12/02 03:33:17;;;;;;;0.00;0.00;;;;;;;3.29;100.00;101406.22;6238881;22;20058;-76
2022/12/02 03:35:43;;;;;;;0.00;0.00;;;;;;;3.19;100.00;101399.47;6268933;22;20006;-77
2022/12/02 03:38:09;;;;;;;0.00;0.00;;;;;;;3.20;100.00;101401.13;6236775;22;20086;-78
2022/12/02 03:40:34;;;;;;;0.00;0.00;;;;;;;3.19;100.00;101402.19;6239505;22;20094;-78
2022/12/02 03:43:00;;;;;;;0.10;0.10;;;;;;;3.12;100.00;101385.88;6210804;22;20007;-78
2022/12/02 03:45:25;;;;;;;0.08;0.08;;;;;;;3.11;100.00;101381.50;6267055;22;20000;-77
2022/12/02 03:47:51;;;;;;;0.00;0.00;;;;;;;3.08;100.00;101387.31;6188185;22;20454;-76
2022/12/02 03:50:17;;;;;;;0.00;0.00;;;;;;;3.05;100.00;101385.00;6214160;22;20698;-77
2022/12/02 03:52:43;;;;;;;0.10;0.10;;;;;;;3.09;100.00;101388.97;6215247;22;20010;-78
2022/12/02 03:55:09;;;;;;;0.00;0.00;;;;;;;3.07;100.00;101389.19;6189610;22;20008;-78
2022/12/02 03:57:35;;;;;;;0.10;0.10;;;;;;;3.05;100.00;101382.28;6214106;22;20411;-79
2022/12/02 04:00:01;;;;;;;0.00;0.00;;;;;;;2.98;100.00;101384.94;6239808;22;20011;-77
2022/12/02 04:02:26;;;;;;;0.00;0.00;;;;;;;2.95;100.00;101388.03;6213125;22;20015;-78
2022/12/02 04:04:52;;;;;;;0.00;0.00;;;;;;;2.93;100.00;101388.19;6213545;22;20008;-76
2022/12/02 04:07:17;;;;;;;0.00;0.00;;;;;;;2.94;100.00;101387.16;6215507;22;20015;-79
2022/12/02 04:09:43;;;;;;;0.00;0.00;;;;;;;2.90;100.00;101380.47;6241238;22;20006;-79
2022/12/02 04:12:08;;;;;;;0.00;0.00;;;;;;;2.91;100.00;101382.16;6237457;22;20057;-78
2022/12/02 04:14:34;;;;;;;0.00;0.00;;;;;;;2.86;100.00;101379.22;6241321;22;20004;-79
2022/12/02 04:16:59;;;;;;;0.10;0.10;;;;;;;2.86;100.00;101375.66;6211495;22;20015;-78
2022/12/02 04:19:25;;;;;;;0.00;0.00;;;;;;;2.86;100.00;101384.63;6215559;22;20010;-80
2022/12/02 04:21:50;;;;;;;0.00;0.00;;;;;;;2.91;100.00;101384.84;6239306;22;20497;-79
2022/12/02 04:24:15;;;;;;;0.00;0.00;;;;;;;2.92;100.00;101383.84;6213722;22;20014;-78
2022/12/02 04:26:41;;;;;;;0.10;0.10;;;;;;;2.96;100.00;101385.13;6189177;22;20012;-81
2022/12/02 04:29:06;;;;;;;0.00;0.00;;;;;;;2.94;100.00;101381.75;6189524;22;20004;-80
2022/12/02 04:31:32;;;;;;;0.10;0.10;;;;;;;2.96;100.00;101385.13;6190507;22;20015;-81
2022/12/02 04:33:57;;;;;;;0.10;0.10;;;;;;;3.00;100.00;101384.75;6264836;22;20004;-80
2022/12/02 04:36:23;;;;;;;0.00;0.00;;;;;;;2.98;100.00;101390.34;6191018;22;20015;-79
2022/12/02 04:38:48;;;;;;;0.00;0.00;;;;;;;2.94;100.00;101387.16;6239082;22;20342;-78
2022/12/02 04:41:14;;;;;;;0.00;0.00;;;;;;;2.90;100.00;101391.28;6213831;22;20013;-78
2022/12/02 04:43:39;;;;;;;0.10;0.10;;;;;;;2.81;100.00;101368.13;6189636;22;20303;-79
2022/12/02 04:46:07;;;;;;;0.10;0.10;;;;;;;2.77;100.00;101380.34;6211905;22;20062;-79
2022/12/02 04:48:32;;;;;;;0.00;0.00;;;;;;;2.72;100.00;101374.69;6190050;22;20027;-78
2022/12/02 04:50:58;;;;;;;0.05;0.05;;;;;;;2.72;100.00;101385.50;6188579;22;21008;-79
2022/12/02 04:53:23;;;;;;;0.00;0.00;;;;;;;2.70;100.00;101376.72;6239749;22;20007;-78
2022/12/02 04:55:49;;;;;;;0.00;0.00;;;;;;;2.73;100.00;101384.44;6194581;22;20015;-79
2022/12/02 04:58:14;;;;;;;0.00;0.00;;;;;;;2.69;100.00;101378.59;6214963;22;20098;-78
2022/12/02 05:00:40;;;;;;;0.00;0.00;;;;;;;2.64;100.00;101382.88;6214581;22;20015;-79
2022/12/02 05:03:05;;;;;;;0.00;0.00;;;;;;;2.65;100.00;101382.69;6269341;22;20003;-80
2022/12/02 05:05:31;;;;;;;0.00;0.00;;;;;;;2.68;100.00;101381.50;6214784;22;20363;-77
2022/12/02 05:07:56;;;;;;;0.10;0.10;;;;;;;2.64;100.00;101380.19;6241053;22;20015;-78
2022/12/02 05:10:21;;;;;;;0.00;0.00;;;;;;;2.60;100.00;101380.56;6218048;22;20038;-79
2022/12/02 05:12:47;;;;;;;0.00;0.00;;;;;;;2.56;100.00;101364.94;6190450;22;20018;-79
2022/12/02 05:15:13;;;;;;;0.00;0.00;;;;;;;2.58;100.00;101379.09;6190030;22;20008;-80
2022/12/02 05:17:38;;;;;;;0.00;0.00;;;;;;;2.55;100.00;101383.00;6217474;22;20385;-79
2022/12/02 05:20:07;;;;;;;0.00;0.00;;;;;;;2.43;100.00;101362.91;6191441;22;20086;-79
2022/12/02 05:22:32;;;;;;;0.10;0.10;;;;;;;2.51;100.00;101376.31;6238030;22;20004;-79
2022/12/02 05:24:58;;;;;;;0.00;0.00;;;;;;;2.55;100.00;101374.88;6192560;22;20062;-80
2022/12/02 05:27:23;;;;;;;0.00;0.00;;;;;;;2.53;100.00;101374.25;6239028;22;20008;-78
2022/12/02 05:29:48;;;;;;;0.10;0.10;;;;;;;2.56;100.00;101367.66;6217171;22;19999;-79
2022/12/02 05:32:14;;;;;;;0.10;0.10;;;;;;;2.49;100.00;101362.16;6187693;22;20091;-80
2022/12/02 05:34:39;;;;;;;0.10;0.10;;;;;;;2.55;100.00;101365.97;6213521;22;20014;-79
2022/12/02 05:37:05;;;;;;;0.00;0.00;;;;;;;2.61;100.00;101370.59;6220043;22;20004;-79
2022/12/02 05:39:30;;;;;;;0.00;0.00;;;;;;;2.66;100.00;101368.19;6187536;22;20011;-78
2022/12/02 05:42:06;;;;;;;0.00;0.00;;;;;;;2.71;100.00;101363.03;6218479;22;20061;-79
2022/12/02 05:44:33;;;;;;;0.00;0.00;;;;;;;2.77;100.00;101358.72;6237126;22;19996;-80
2022/12/02 05:47:08;;;;;;;0.00;0.00;;;;;;;2.77;100.00;101358.72;6217697;22;20027;-79
2022/12/02 05:49:34;;;;;;;0.00;0.00;;;;;;;2.69;100.00;101340.78;6237457;22;19995;-79
2022/12/02 05:52:06;;;;;;;0.10;0.10;;;;;;;2.60;100.00;101331.97;6193059;22;20007;-78
2022/12/02 05:54:31;;;;;;;0.00;0.00;;;;;;;2.68;100.00;101349.06;6264138;22;20004;-80
2022/12/02 05:57:02;;;;;;;0.00;0.00;;;;;;;2.72;100.00;101353.06;6243810;22;20749;-76
2022/12/02 05:59:28;;;;;;;0.00;0.00;;;;;;;2.71;100.00;101343.28;6237293;22;20000;-77
2022/12/02 06:01:56;;;;;;;0.00;0.00;;;;;;;2.74;100.00;101338.31;6243308;22;20095;-78
2022/12/02 06:04:30;;;;;;;0.00;0.00;;;;;;;2.82;100.00;101340.09;6238614;22;20015;-76
2022/12/02 06:07:00;;;;;;;0.00;0.00;;;;;;;2.81;100.00;101341.09;6239868;22;20012;-76
2022/12/02 06:09:32;;;;;;;0.00;0.00;;;;;;;2.71;100.00;101330.59;6245408;22;20022;-78
2022/12/02 06:11:59;;;;;;;0.00;0.00;;;;;;;2.75;100.00;101328.38;6239228;22;20069;-76
2022/12/02 06:14:30;;;;;;;0.00;0.00;;;;;;;2.84;100.00;101340.72;6218433;22;20010;-77
2022/12/02 06:17:00;;;;;;;0.00;0.00;;;;;;;2.84;100.00;101335.31;6239517;22;20003;-76
2022/12/02 06:19:45;;;;;;;0.00;0.00;;;;;;;2.93;100.00;101328.75;6243541;22;20004;-76
2022/12/02 06:22:26;;;;;;;0.00;0.00;;;;;;;2.99;100.00;101334.44;6242080;22;20012;-76
2022/12/02 06:24:58;;;;;;;0.00;0.00;;;;;;;3.01;100.00;101337.75;6244530;22;20082;-75
2022/12/02 06:27:26;;;;;;;0.00;0.00;;;;;;;3.01;100.00;101332.34;6238524;22;20346;-75
2022/12/02 06:30:01;;;;;;;0.10;0.10;;;;;;;2.94;100.00;101322.31;6243685;22;20021;-77
2022/12/02 06:32:35;;;;;;;0.00;0.00;;;;;;;2.97;100.00;101342.72;6264657;22;19995;-76
2022/12/02 06:35:15;;;;;;;0.10;0.10;;;;;;;2.95;100.00;101337.50;6271690;22;20008;-75
2022/12/02 06:37:41;;;;;;;0.00;0.00;;;;;;;2.92;100.00;101340.59;6241361;22;20498;-75
2022/12/02 06:40:22;;;;;;;0.00;0.00;;;;;;;2.93;100.00;101339.56;6244680;22;20008;-76
2022/12/02 06:42:49;;;;;;;0.00;0.00;;;;;;;2.89;100.00;101335.59;6236800;22;20038;-75
2022/12/02 06:45:27;;;;;;;0.00;0.00;;;;;;;2.88;100.00;101336.63;6219130;22;20091;-76
2022/12/02 06:48:29;;;;;;;0.00;0.00;;;;;;;2.88;100.00;101338.50;6232761;22;20517;-74
2022/12/02 06:50:59;;;;;;;0.00;0.00;;;;;;;2.87;100.00;101332.22;6237223;22;20030;-76
2022/12/02 06:53:35;;;;;;;0.00;0.00;;;;;;;2.91;100.00;101343.50;6241943;22;20015;-75
2022/12/02 06:56:18;;;;;;;0.00;0.00;;;;;;;2.90;100.00;101337.25;6262783;22;20057;-75
2022/12/02 06:58:52;;;;;;;0.00;0.00;;;;;;;2.90;100.00;101337.25;6269920;22;20010;-75
2022/12/02 07:01:24;;;;;;;0.00;0.00;;;;;;;2.95;100.00;101345.63;6232940;22;20015;-78
2022/12/02 07:04:08;;;;;;;0.00;0.00;;;;;;;2.98;100.00;101349.81;6242804;22;20007;-75
2022/12/02 07:06:38;;;;;;;0.00;0.00;;;;;;;2.92;100.00;101332.50;6235987;22;20023;-75
2022/12/02 07:09:21;;;;;;;0.10;0.10;;;;;;;2.92;100.00;101346.00;6237925;22;20008;-78
2022/12/02 07:11:52;;;;;;;0.05;0.05;;;;;;;2.96;100.00;101346.44;6242138;22;20014;-76
2022/12/02 07:14:39;;;;;;;0.00;0.00;;;;;;;2.95;100.00;101345.63;6243115;22;20449;-75
2022/12/02 07:17:43;;;;;;;0.10;0.10;;;;;;;2.90;100.00;101345.34;6245311;22;20145;-74
2022/12/02 07:20:32;;;;;;;0.00;0.00;;;;;;;2.88;100.00;101355.53;6239265;22;20000;-75
2022/12/02 07:23:22;;;;;;;0.00;0.00;;;;;;;2.82;100.00;101342.78;6241862;22;20011;-76
2022/12/02 07:26:10;;;;;;;0.00;0.00;;;;;;;2.72;100.00;101324.19;6247498;22;19999;-75
2022/12/02 07:28:39;;;;;;;0.00;0.00;;;;;;;2.76;100.00;101327.31;6241959;22;20014;-77
2022/12/02 07:31:23;;;;;;;0.00;0.00;;;;;;;2.83;100.00;101322.81;6232643;22;20428;-77
2022/12/02 07:33:49;;;;;;;0.00;0.00;;;;;;;3.02;100.00;101334.84;6264104;22;20045;-76
2022/12/02 07:36:20;;;;;;;0.10;0.10;;;;;;;2.99;100.00;101337.13;6237468;22;20220;-80
2022/12/02 07:38:54;;;;;;;0.10;0.10;;;;;;;2.95;100.00;101329.41;6227973;22;20021;-78
2022/12/02 07:41:40;;;;;;;0.00;0.00;;;;;;;2.91;100.00;101333.53;6222228;22;20062;-82
2022/12/02 07:44:29;;;;;;;0.00;0.00;;;;;;;2.87;100.00;101337.63;6220801;22;20012;-81
2022/12/02 07:46:54;;;;;;;0.00;0.00;;;;;;;2.84;100.00;101343.41;6270629;22;20011;-81
2022/12/02 07:49:27;;;;;;;0.00;0.00;;;;;;;2.83;100.00;101347.16;6220192;22;20030;-81
2022/12/02 07:52:02;;;;;;;0.10;0.10;;;;;;;2.77;100.00;101346.06;6195637;22;20014;-82
2022/12/02 07:54:37;;;;;;;0.10;0.10;;;;;;;2.69;100.00;101337.25;6220492;22;20038;-79
2022/12/02 07:57:24;;;;;;;;;;;;;;;;;;;;;
2022/12/02 07:59:52;;;;;;;0.00;0.00;;;;;;;2.72;100.00;101345.78;6242780;22;20090;-78
2022/12/02 08:02:28;;;;;;;;;;;;;;;;;;;;;
2022/12/02 08:05:11;;;;;;;0.00;0.00;;;;;;;2.68;100.00;101338.28;6269251;22;20091;-78
2022/12/02 08:07:37;;;;;;;0.00;0.00;;;;;;;2.69;100.00;101339.97;6222429;22;20446;-77
2022/12/02 08:10:10;;;;;;;0.00;0.00;;;;;;;2.70;100.00;101342.47;6240195;22;19996;-78
2022/12/02 08:12:43;;;;;;;0.00;0.00;;;;;;;2.68;100.00;101327.47;6242734;22;20369;-78
2022/12/02 08:15:10;;;;;;;0.10;0.10;;;;;;;2.83;100.00;101341.75;6238425;22;20095;-77
2022/12/02 08:17:36;;;;;;;0.00;0.00;;;;;;;2.92;100.00;101351.41;6220281;22;20012;-78
2022/12/02 08:20:25;;;;;;;;;;;;;;;;;;;;;
2022/12/02 08:22:58;;;;;;;0.00;0.00;;;;;;;2.83;100.00;101347.16;6270462;22;20082;-78
2022/12/02 08:25:23;;;;;;;0.00;0.00;;;;;;;2.93;100.00;101358.47;6239911;22;19996;-76
2022/12/02 08:27:48;;;;;;;0.10;0.10;;;;;;;2.92;100.00;101350.56;6241965;22;20003;-76
2022/12/02 08:30:16;;;;;;;0.00;0.00;;;;;;;3.04;100.00;101367.09;6245235;22;20000;-77
2022/12/02 08:32:44;;;;;;;0.00;0.00;;;;;;;3.01;100.00;101359.38;6238976;22;20477;-78
2022/12/02 08:35:11;;;;;;;0.00;0.00;;;;;;;3.04;100.00;101357.13;6220017;22;20156;-79
2022/12/02 08:37:37;;;;;;;0.10;0.10;;;;;;;3.13;100.00;101365.94;6212576;22;20011;-78
2022/12/02 08:40:06;;;;;;;0.10;0.10;;;;;;;3.10;100.00;101360.94;6243079;22;20008;-78
2022/12/02 08:42:34;;;;;;;0.00;0.00;;;;;;;3.09;100.00;101351.16;6216772;22;20025;-78
2022/12/02 08:44:59;;;;;;;0.03;0.03;;;;;;;3.26;100.00;101365.25;6243972;22;20449;-77
2022/12/02 08:47:24;;;;;;;0.00;0.00;;;;;;;3.25;100.00;101356.28;6240496;22;20023;-78
2022/12/02 08:49:50;;;;;;;0.00;0.00;;;;;;;3.28;100.00;101349.66;6241726;22;20370;-76
2022/12/02 08:52:15;;;;;;;0.00;0.00;;;;;;;3.33;100.00;101358.03;6244778;22;20039;-76
2022/12/02 08:54:44;;;;;;;0.00;0.00;;;;;;;3.44;100.00;101365.59;6236567;22;20011;-77
2022/12/02 08:57:12;;;;;;;0.00;0.00;;;;;;;3.50;100.00;101363.97;6221295;22;20434;-77
2022/12/02 08:59:37;;;;;;;0.00;0.00;;;;;;;3.55;100.00;101366.94;6239167;22;20010;-77
2022/12/02 09:02:03;;;;;;;0.00;0.00;;;;;;;3.60;100.00;101375.28;6270229;22;20012;-77
2022/12/02 09:04:34;;;;;;;0.00;0.00;;;;;;;3.67;100.00;101370.75;6213274;22;20413;-76
2022/12/02 09:07:18;;;;;;;;;;;;;;;;;;;;;
2022/12/02 09:09:46;;;;;;;0.00;0.00;;;;;;;3.68;100.00;101366.19;6242485;22;20095;-77
2022/12/02 09:12:12;;;;;;;0.00;0.00;;;;;;;3.71;100.00;101359.53;6272294;22;20008;-76
2022/12/02 09:14:57;;;;;;;0.00;0.00;;;;;;;3.75;100.00;101363.53;6190931;22;20349;-76
2022/12/02 09:17:25;;;;;;;0.00;0.00;;;;;;;3.89;100.00;101373.41;6219361;22;20086;-76
2022/12/02 09:20:12;;;;;;;0.00;0.00;;;;;;;3.99;100.00;101373.88;6242765;22;20016;-76
2022/12/02 09:22:37;;;;;;;0.00;0.00;;;;;;;3.97;100.00;101357.03;6241903;22;20008;-77
2022/12/02 09:25:13;;;;;;;0.00;0.00;;;;;;;3.99;100.00;101363.06;6241671;22;20007;-76
2022/12/02 09:27:40;;;;;;;0.00;0.00;;;;;;;4.12;100.00;101373.13;6265821;22;20016;-77
2022/12/02 09:30:06;;;;;;;0.00;0.00;;;;;;;4.13;100.00;101361.28;6270960;22;20000;-77
2022/12/02 09:32:34;;;;;;;0.00;0.00;;;;;;;4.21;100.00;101360.25;6241237;22;20005;-78
2022/12/02 09:35:01;;;;;;;0.00;0.00;;;;;;;4.36;100.00;101379.06;6245359;22;20003;-77
2022/12/02 09:37:28;;;;;;;0.00;0.00;;;;;;;4.33;100.00;101361.34;6239072;22;20038;-77
2022/12/02 09:39:54;;;;;;;0.00;0.00;;;;;;;4.44;100.00;101365.38;6245949;22;20023;-78
2022/12/02 09:42:19;;;;;;;0.00;0.00;;;;;;;4.52;100.00;101367.06;6240164;22;20419;-78
2022/12/02 09:44:48;;;;;;;0.00;0.00;;;;;;;4.59;100.00;101367.09;6192882;22;20011;-77
2022/12/02 09:47:21;;;;;;;0.00;0.00;;;;;;;4.69;100.00;101362.94;6219397;22;20047;-76
2022/12/02 09:49:47;;;;;;;0.10;0.10;;;;;;;4.77;100.00;101358.38;6238881;22;20007;-77
2022/12/02 09:52:17;;;;;;;0.00;0.00;;;;;;;4.89;100.00;101360.28;6273061;22;20017;-76
2022/12/02 09:54:42;;;;;;;0.10;0.10;;;;;;;5.01;100.00;101362.41;6240989;22;20035;-76
2022/12/02 09:57:20;;;;;;;0.00;0.00;;;;;;;5.13;100.00;101366.16;6245189;22;20058;-78
2022/12/02 09:59:45;;;;;;;0.10;0.10;;;;;;;5.22;100.00;101367.63;6237163;22;20000;-77
2022/12/02 10:02:43;;;;;;;0.00;0.00;;;;;;;5.42;100.00;101381.22;6189006;22;20015;-78
2022/12/02 10:05:27;;;;;;;0.00;0.00;;;;;;;5.51;100.00;101381.84;6179580;22;20060;-77
2022/12/02 10:07:56;;;;;;;0.10;0.10;;;;;;;5.58;100.00;101377.25;6235484;22;20008;-77
2022/12/02 10:10:24;;;;;;;0.00;0.00;;;;;;;5.56;100.00;101362.22;6240381;22;19995;-78
2022/12/02 10:12:55;;;;;;;0.10;0.10;;;;;;;5.70;100.00;101366.59;6271130;22;20006;-77
2022/12/02 10:15:26;;;;;;;0.08;0.08;;;;;;;5.66;100.00;101359.91;6241026;22;20006;-81
2022/12/02 10:17:52;;;;;;;0.00;0.00;;;;;;;5.76;100.00;101362.19;6243557;22;20057;-79
2022/12/02 10:20:28;;;;;;;0.00;0.00;;;;;;;5.85;100.00;101366.34;6242774;22;20474;-79
2022/12/02 10:23:21;;;;;;;0.00;0.00;;;;;;;5.98;100.00;101370.94;6240988;22;20010;-80
2022/12/02 10:25:53;;;;;;;0.00;0.00;;;;;;;5.95;100.00;101374.88;6236126;22;20003;-80
2022/12/02 10:28:28;;;;;;;0.05;0.05;;;;;;;5.94;100.00;101362.38;6240911;22;20090;-80
2022/12/02 10:31:17;;;;;;;;;;;;;;;;;;;;;
2022/12/02 10:34:04;;;;;;;0.00;0.00;;;;;;;6.08;100.00;101363.19;6272148;22;20071;-80
2022/12/02 10:36:31;;;;;;;0.00;0.00;;;;;;;6.33;100.00;101373.34;6244125;22;20672;-77
2022/12/02 10:39:16;;;;;;;0.00;0.00;;;;;;;6.57;100.00;101362.81;6269387;22;20004;-77
2022/12/02 10:41:42;;;;;;;0.00;0.00;;;;;;;6.80;100.00;101363.13;6241305;22;20018;-78
2022/12/02 10:44:44;;;;;;;0.03;0.03;;;;;;;6.99;100.00;101366.78;6240592;22;20031;-79
2022/12/02 10:47:21;;;;;;;0.00;0.00;;;;;;;6.98;100.00;101353.41;6240794;22;20126;-79
2022/12/02 10:49:56;;;;;;;0.00;0.00;;;;;;;7.19;100.00;101360.34;6235959;22;20003;-79
2022/12/02 10:52:34;;;;;;;0.10;0.10;;;;;;;7.28;99.92;101360.91;6216787;22;20334;-77
2022/12/02 10:55:02;;;;;;;0.00;0.00;;;;;;;7.29;98.81;101346.25;6237332;22;20003;-76
2022/12/02 10:57:29;;;;;;;0.10;0.10;;;;;;;7.38;99.43;101350.38;6216486;22;20421;-76
2022/12/02 10:59:57;;;;;;;0.00;0.00;;;;;;;7.41;99.43;101360.81;6214315;22;20014;-76
2022/12/02 11:02:32;;;;;;;0.00;0.00;;;;;;;7.34;98.96;101352.72;6270024;22;20066;-76
2022/12/02 11:05:08;;;;;;;0.10;0.10;;;;;;;7.25;99.31;101351.31;6237517;22;20003;-77
2022/12/02 11:07:36;;;;;;;0.00;0.00;;;;;;;7.12;98.39;101333.19;6240976;22;19999;-77
2022/12/02 11:10:02;;;;;;;0.00;0.00;;;;;;;6.95;99.55;101327.47;6238440;22;19995;-79
2022/12/02 11:12:36;;;;;;;0.00;0.00;;;;;;;7.03;100.00;101339.97;6241333;22;20061;-76
2022/12/02 11:15:26;;;;;;;0.00;0.00;;;;;;;7.01;100.00;101331.19;6245295;22;20426;-78
2022/12/02 11:17:52;;;;;;;0.10;0.10;;;;;;;6.85;100.00;101315.38;6241604;22;20326;-78
2022/12/02 11:20:45;;;;;;;0.05;0.05;;;;;;;6.82;100.00;101328.38;6185163;22;20003;-77
2022/12/02 11:23:15;;;;;;;0.00;0.00;;;;;;;6.78;100.00;101324.44;6220088;22;20003;-77
2022/12/02 11:25:46;;;;;;;0.00;0.00;;;;;;;6.74;100.00;101330.53;6233551;22;20015;-78
2022/12/02 11:28:25;;;;;;;0.00;0.00;;;;;;;6.78;100.00;101320.88;6240567;22;20019;-80
2022/12/02 11:31:13;;;;;;;0.00;0.00;;;;;;;6.95;100.00;101315.75;6237626;22;20307;-79
2022/12/02 11:33:47;;;;;;;0.00;0.00;;;;;;;7.23;100.00;101317.19;6239445;22;20377;-77
2022/12/02 11:36:16;;;;;;;;;;;;;;;7.39;99.71;101323.97;6267460;22;20007;-78
2022/12/02 11:38:53;;;;;;;0.00;0.00;;;;;;;7.45;99.44;101294.00;6241240;22;20314;-78
2022/12/02 11:41:24;;;;;;;0.00;0.00;;;;;;;7.70;98.65;101304.00;6238457;22;20000;-77
2022/12/02 11:44:07;;;;;;;0.00;0.00;;;;;;;7.87;98.13;101307.00;6240619;22;20003;-77
2022/12/02 11:46:53;;;;;;;0.00;0.00;;;;;;;7.97;97.00;101295.53;6237751;22;20595;-79
2022/12/02 11:49:28;;;;;;;0.10;0.10;;;;;;;8.13;97.05;101294.94;6267320;22;20079;-79